createdAt,value
2022-10-13T00:01:01.274Z,15.10
2022-10-13T00:03:28.498Z,14.70
2022-10-13T00:05:55.637Z,15.40
2022-10-13T00:08:26.590Z,14.10
2022-10-13T00:10:53.845Z,14.80
2022-10-13T00:13:24.078Z,13.80
2022-10-13T00:15:52.438Z,16.70
2022-10-13T00:18:19.896Z,15.30
2022-10-13T00:20:50.020Z,15.20
2022-10-13T00:23:18.080Z,15.40
2022-10-13T00:25:48.255Z,15.90
2022-10-13T00:28:19.279Z,15.30
2022-10-13T00:30:47.519Z,15.40
2022-10-13T00:33:15.496Z,15.50
2022-10-13T00:35:44.996Z,14.50
2022-10-13T00:38:18.696Z,15.10
2022-10-13T00:40:48.192Z,13.80
2022-10-13T00:43:23.342Z,14.70
2022-10-13T00:45:52.016Z,14.90
2022-10-13T00:48:30.014Z,14.90
2022-10-13T00:50:58.819Z,14.80
2022-10-13T00:53:30.003Z,15.00
2022-10-13T00:55:57.518Z,14.50
2022-10-13T00:58:26.399Z,14.70
2022-10-13T01:00:54.046Z,15.30
2022-10-13T01:03:22.135Z,13.80
2022-10-13T01:05:50.926Z,14.30
2022-10-13T01:08:19.447Z,15.90
2022-10-13T01:11:25.670Z,15.80
2022-10-13T01:14:01.838Z,15.60
2022-10-13T01:16:47.935Z,15.50
2022-10-13T01:19:23.814Z,14.20
2022-10-13T01:22:09.472Z,14.80
2022-10-13T01:24:36.715Z,16.40
2022-10-13T01:27:06.738Z,16.30
2022-10-13T01:29:52.204Z,15.70
2022-10-13T01:32:19.546Z,14.70
2022-10-13T01:34:53.983Z,15.40
2022-10-13T01:37:29.632Z,15.60
2022-10-13T01:39:58.538Z,14.30
2022-10-13T01:42:45.855Z,14.80
2022-10-13T01:45:18.179Z,16.30
2022-10-13T01:47:46.694Z,16.60
2022-10-13T01:50:15.820Z,15.60
2022-10-13T01:52:43.478Z,15.50
2022-10-13T01:55:12.799Z,15.40
2022-10-13T01:57:42.276Z,15.20
2022-10-13T02:00:16.902Z,12.70
2022-10-13T02:03:02.580Z,12.90
2022-10-13T02:05:51.538Z,13.10
2022-10-13T02:08:43.767Z,12.40
2022-10-13T02:11:31.418Z,11.80
2022-10-13T02:14:07.965Z,14.20
2022-10-13T02:16:38.998Z,12.00
2022-10-13T02:19:07.506Z,13.10
2022-10-13T02:21:35.644Z,13.00
2022-10-13T02:24:04.409Z,16.40
2022-10-13T02:26:33.469Z,15.20
2022-10-13T02:29:14.330Z,16.30
2022-10-13T02:31:42.376Z,16.80
2022-10-13T02:34:10.059Z,17.70
2022-10-13T02:36:38.579Z,17.20
2022-10-13T02:39:07.681Z,15.60
2022-10-13T02:41:35.181Z,17.90
2022-10-13T02:44:02.342Z,17.50
2022-10-13T02:46:35.111Z,16.80
2022-10-13T02:49:02.462Z,16.10
2022-10-13T02:51:30.950Z,16.60
2022-10-13T02:53:58.200Z,16.80
2022-10-13T02:56:25.348Z,16.90
2022-10-13T02:58:52.601Z,17.40
2022-10-13T03:01:19.758Z,16.60
2022-10-13T03:03:47.017Z,16.30
2022-10-13T03:06:14.277Z,16.90
2022-10-13T03:08:41.617Z,17.60
2022-10-13T03:11:08.961Z,17.20
2022-10-13T03:13:37.858Z,16.50
2022-10-13T03:16:07.581Z,17.60
2022-10-13T03:18:35.222Z,16.10
2022-10-13T03:21:05.458Z,16.50
2022-10-13T03:23:34.759Z,16.80
2022-10-13T03:26:02.721Z,16.00
2022-10-13T03:28:30.156Z,17.60
2022-10-13T03:31:05.537Z,15.40
2022-10-13T03:33:32.655Z,17.20
2022-10-13T03:36:02.195Z,16.70
2022-10-13T03:38:30.747Z,15.40
2022-10-13T03:41:04.341Z,14.80
2022-10-13T03:43:32.514Z,15.20
2022-10-13T03:46:01.723Z,14.40
2022-10-13T03:48:29.681Z,13.50
2022-10-13T03:50:56.829Z,15.10
2022-10-13T03:53:24.718Z,12.60
2022-10-13T03:55:54.044Z,15.80
2022-10-13T03:58:22.683Z,14.90
2022-10-13T04:00:51.162Z,17.30
2022-10-13T04:03:18.415Z,14.30
2022-10-13T04:05:45.876Z,15.70
2022-10-13T04:08:13.432Z,16.00
2022-10-13T04:10:40.690Z,17.80
2022-10-13T04:13:08.261Z,15.70
2022-10-13T04:15:41.119Z,14.90
2022-10-13T04:18:09.001Z,16.80
2022-10-13T04:20:40.763Z,17.20
2022-10-13T04:23:08.925Z,17.00
2022-10-13T04:25:38.898Z,17.60
2022-10-13T04:28:07.422Z,17.90
2022-10-13T04:30:37.332Z,16.60
2022-10-13T04:33:04.589Z,16.20
2022-10-13T04:35:32.156Z,14.40
2022-10-13T04:37:59.838Z,15.40
2022-10-13T04:40:28.017Z,15.10
2022-10-13T04:42:55.241Z,17.90
2022-10-13T04:45:23.612Z,14.40
2022-10-13T04:47:51.098Z,16.00
2022-10-13T04:50:22.440Z,13.60
2022-10-13T04:53:00.241Z,16.00
2022-10-13T04:55:27.498Z,17.50
2022-10-13T04:57:54.730Z,17.30
2022-10-13T05:00:22.187Z,17.00
2022-10-13T05:02:49.497Z,17.20
2022-10-13T05:05:16.888Z,17.30
2022-10-13T05:07:44.037Z,17.40
2022-10-13T05:10:11.214Z,16.00
2022-10-13T05:12:38.439Z,16.10
2022-10-13T05:15:06.530Z,15.30
2022-10-13T05:17:35.612Z,16.30
2022-10-13T05:20:09.201Z,17.60
2022-10-13T05:22:36.469Z,19.40
2022-10-13T05:25:04.431Z,17.80
2022-10-13T05:27:31.689Z,17.80
2022-10-13T05:30:00.867Z,17.20
2022-10-13T05:32:29.475Z,17.70
2022-10-13T05:34:56.917Z,19.70
2022-10-13T05:37:24.282Z,19.00
2022-10-13T05:39:51.639Z,17.90
2022-10-13T05:42:19.307Z,18.80
2022-10-13T05:44:46.859Z,16.00
2022-10-13T05:47:13.999Z,15.60
2022-10-13T05:49:41.458Z,13.90
2022-10-13T05:52:11.364Z,17.20
2022-10-13T05:54:44.719Z,17.10
2022-10-13T05:57:17.336Z,14.30
2022-10-13T05:59:52.569Z,16.60
2022-10-13T06:02:21.746Z,15.90
2022-10-13T06:04:51.227Z,14.10
2022-10-13T06:07:18.735Z,16.10
2022-10-13T06:09:46.628Z,14.20
2022-10-13T06:12:14.102Z,15.40
2022-10-13T06:14:41.339Z,15.00
2022-10-13T06:17:11.925Z,16.00
2022-10-13T06:19:43.599Z,15.90
2022-10-13T06:22:10.749Z,16.00
2022-10-13T06:24:38.018Z,13.70
2022-10-13T06:27:07.718Z,15.70
2022-10-13T06:29:36.719Z,14.90
2022-10-13T06:32:04.692Z,14.30
2022-10-13T06:34:32.022Z,15.70
2022-10-13T06:37:00.422Z,14.30
2022-10-13T06:39:27.559Z,16.40
2022-10-13T06:41:55.839Z,16.50
2022-10-13T06:44:31.515Z,15.20
2022-10-13T06:47:03.550Z,12.10
2022-10-13T06:49:30.678Z,16.00
2022-10-13T06:51:58.058Z,13.70
2022-10-13T06:54:25.519Z,17.20
2022-10-13T06:56:53.167Z,17.40
2022-10-13T06:59:21.434Z,17.20
2022-10-13T07:01:49.417Z,17.10
2022-10-13T07:04:17.059Z,16.50
2022-10-13T07:06:44.536Z,15.80
2022-10-13T07:09:12.295Z,13.40
2022-10-13T07:11:39.756Z,14.80
2022-10-13T07:14:08.123Z,16.50
2022-10-13T07:16:35.374Z,17.80
2022-10-13T07:19:03.255Z,16.30
2022-10-13T07:21:30.594Z,15.00
2022-10-13T07:23:57.853Z,13.50
2022-10-13T07:26:25.401Z,16.80
2022-10-13T07:28:53.850Z,16.70
2022-10-13T07:31:21.618Z,16.90
2022-10-13T07:33:50.115Z,13.40
2022-10-13T07:36:17.706Z,16.00
2022-10-13T07:38:45.452Z,14.30
2022-10-13T07:41:13.214Z,16.30
2022-10-13T07:43:40.880Z,15.90
2022-10-13T07:46:09.496Z,16.40
2022-10-13T07:48:36.918Z,18.00
2022-10-13T07:51:09.377Z,15.70
2022-10-13T07:53:36.749Z,17.10
2022-10-13T07:56:06.286Z,16.30
2022-10-13T07:58:36.647Z,14.50
2022-10-13T08:01:04.402Z,15.80
2022-10-13T08:03:33.177Z,14.70
2022-10-13T08:06:01.518Z,13.50
2022-10-13T08:08:29.532Z,17.80
2022-10-13T08:11:04.298Z,15.40
2022-10-13T08:13:32.495Z,16.20
2022-10-13T08:16:08.227Z,18.10
2022-10-13T08:18:35.577Z,14.30
2022-10-13T08:21:33.089Z,15.40
2022-10-13T08:23:52.094Z,16.20
2022-10-13T08:26:27.965Z,16.90
2022-10-13T08:29:16.798Z,17.40
2022-10-13T08:31:43.563Z,15.30
2022-10-13T08:34:12.918Z,16.00
2022-10-13T08:36:40.406Z,15.90
2022-10-13T08:39:07.775Z,17.10
2022-10-13T08:41:44.338Z,16.40
2022-10-13T08:47:27.586Z,14.00
2022-10-13T08:50:01.711Z,16.50
2022-10-13T08:52:43.289Z,14.90
2022-10-13T08:55:22.116Z,14.10
2022-10-13T08:57:49.463Z,15.60
2022-10-13T09:00:17.862Z,14.90
2022-10-13T09:02:50.093Z,16.30
2022-10-13T09:05:38.000Z,15.40
2022-10-13T09:08:20.523Z,16.70
2022-10-13T09:10:51.618Z,11.60
2022-10-13T09:13:20.500Z,16.50
2022-10-13T09:15:50.871Z,15.90
2022-10-13T09:18:19.057Z,15.80
2022-10-13T09:20:46.439Z,14.30
2022-10-13T09:23:21.568Z,13.70
2022-10-13T09:25:52.937Z,13.60
2022-10-13T09:28:31.644Z,14.10
2022-10-13T09:31:10.271Z,13.00
2022-10-13T09:33:40.716Z,15.40
2022-10-13T09:36:13.574Z,14.90
2022-10-13T09:38:46.452Z,14.60
2022-10-13T09:41:17.693Z,13.60
2022-10-13T09:43:47.935Z,14.70
2022-10-13T09:46:32.782Z,12.90
2022-10-13T09:49:04.453Z,12.20
2022-10-13T09:51:31.710Z,11.30
2022-10-13T09:54:01.009Z,9.90
2022-10-13T09:56:37.150Z,11.30
2022-10-13T09:59:36.877Z,11.00
2022-10-13T10:02:28.712Z,9.90
2022-10-13T10:04:58.400Z,9.40
2022-10-13T10:07:28.493Z,9.70
2022-10-13T10:10:02.532Z,10.00
2022-10-13T10:12:34.298Z,9.50
2022-10-13T10:15:01.855Z,9.90
2022-10-13T10:17:56.653Z,8.80
2022-10-13T10:20:42.437Z,8.80
2022-10-13T10:23:15.524Z,7.80
2022-10-13T10:25:48.960Z,8.40
2022-10-13T10:28:31.098Z,7.70
2022-10-13T10:31:23.969Z,6.00
2022-10-13T10:33:51.130Z,8.30
2022-10-13T10:36:42.328Z,7.80
2022-10-13T10:39:27.919Z,7.10
2022-10-13T10:42:18.927Z,8.10
2022-10-13T10:44:51.220Z,7.20
2022-10-13T10:47:28.962Z,7.10
2022-10-13T10:50:07.627Z,8.40
2022-10-13T10:52:54.638Z,7.40
2022-10-13T10:55:54.141Z,7.40
2022-10-13T10:58:46.929Z,6.00
2022-10-13T11:01:35.221Z,5.30
2022-10-13T11:04:44.931Z,6.20
2022-10-13T11:07:15.697Z,7.50
2022-10-13T11:09:42.837Z,7.20
2022-10-13T11:12:23.445Z,5.80
2022-10-13T11:15:11.683Z,6.00
2022-10-13T11:17:42.670Z,5.90
2022-10-13T11:20:18.888Z,6.40
2022-10-13T11:22:58.172Z,5.70
2022-10-13T11:25:34.341Z,5.40
2022-10-13T11:28:01.776Z,5.30
2022-10-13T11:30:55.805Z,5.30
2022-10-13T11:33:36.259Z,5.10
2022-10-13T11:36:31.775Z,4.60
2022-10-13T11:39:27.121Z,4.70
2022-10-13T11:42:12.617Z,5.40
2022-10-13T11:44:59.588Z,4.50
2022-10-13T11:47:55.378Z,3.80
2022-10-13T11:50:29.137Z,4.70
2022-10-13T11:53:19.965Z,4.10
2022-10-13T11:55:54.827Z,3.80
2022-10-13T11:58:27.768Z,3.70
2022-10-13T12:01:06.863Z,3.70
2022-10-13T12:03:37.283Z,3.50
2022-10-13T12:06:08.229Z,3.50
2022-10-13T12:08:36.944Z,3.10
2022-10-13T12:11:07.956Z,3.40
2022-10-13T12:13:36.681Z,3.60
2022-10-13T12:16:06.822Z,4.70
2022-10-13T12:18:38.636Z,4.30
2022-10-13T12:21:12.992Z,4.20
2022-10-13T12:23:41.538Z,3.60
2022-10-13T12:26:17.963Z,3.80
2022-10-13T12:28:45.425Z,3.40
2022-10-13T12:31:23.730Z,3.50
2022-10-13T12:34:01.671Z,3.60
2022-10-13T12:36:31.480Z,4.10
2022-10-13T12:39:05.099Z,3.40
2022-10-13T12:41:36.591Z,3.70
2022-10-13T12:44:06.772Z,3.60
2022-10-13T12:46:44.146Z,3.60
2022-10-13T12:49:17.529Z,3.90
2022-10-13T12:51:47.807Z,3.60
2022-10-13T12:54:24.041Z,3.90
2022-10-13T12:56:56.123Z,4.00
2022-10-13T12:59:26.629Z,4.30
2022-10-13T13:02:02.007Z,4.60
2022-10-13T13:04:33.789Z,3.70
2022-10-13T13:07:04.210Z,4.20
2022-10-13T13:09:34.819Z,3.80
2022-10-13T13:12:11.415Z,3.80
2022-10-13T13:14:41.525Z,4.10
2022-10-13T13:17:45.248Z,4.30
2022-10-13T13:20:35.208Z,4.10
2022-10-13T13:23:02.572Z,3.60
2022-10-13T13:25:30.021Z,3.50
2022-10-13T13:27:57.317Z,3.90
2022-10-13T13:30:24.691Z,4.00
2022-10-13T13:32:52.337Z,3.60
2022-10-13T13:35:19.500Z,3.60
2022-10-13T13:37:51.105Z,3.10
2022-10-13T13:40:25.117Z,3.80
2022-10-13T13:42:52.704Z,3.60
2022-10-13T13:45:22.584Z,3.30
2022-10-13T13:47:49.993Z,3.70
2022-10-13T13:50:21.003Z,3.90
2022-10-13T13:52:57.094Z,3.80
2022-10-13T13:55:24.787Z,3.70
2022-10-13T13:57:52.488Z,4.50
2022-10-13T14:00:19.972Z,3.80
2022-10-13T14:02:50.036Z,4.20
2022-10-13T14:05:17.430Z,4.50
2022-10-13T14:07:46.328Z,4.10
2022-10-13T14:10:13.579Z,4.10
2022-10-13T14:12:40.931Z,4.40
2022-10-13T14:15:10.433Z,4.20
2022-10-13T14:17:37.712Z,4.50
2022-10-13T14:20:05.760Z,4.10
2022-10-13T14:22:39.018Z,4.80
2022-10-13T14:25:07.297Z,4.70
2022-10-13T14:27:35.695Z,4.60
2022-10-13T14:30:07.643Z,4.60
2022-10-13T14:32:37.069Z,4.40
2022-10-13T14:35:05.528Z,4.20
2022-10-13T14:37:33.707Z,4.40
2022-10-13T14:40:01.471Z,4.50
2022-10-13T14:42:28.909Z,3.00
2022-10-13T14:44:56.126Z,3.90
2022-10-13T14:47:23.855Z,4.30
2022-10-13T14:49:51.308Z,4.20
2022-10-13T14:52:18.499Z,4.10
2022-10-13T14:54:46.851Z,4.10
2022-10-13T14:57:16.332Z,3.70
2022-10-13T14:59:44.147Z,3.80
2022-10-13T15:02:14.255Z,4.60
2022-10-13T15:04:52.469Z,4.20
2022-10-13T15:07:20.185Z,4.20
2022-10-13T15:10:04.204Z,4.50
2022-10-13T15:12:32.707Z,3.90
2022-10-13T15:14:59.846Z,4.40
2022-10-13T15:17:27.144Z,4.30
2022-10-13T15:19:54.421Z,4.20
2022-10-13T15:22:23.749Z,4.10
2022-10-13T15:25:07.921Z,4.20
2022-10-13T15:27:40.746Z,4.30
2022-10-13T15:30:10.132Z,4.00
2022-10-13T15:32:37.798Z,4.40
2022-10-13T15:35:06.649Z,4.60
2022-10-13T15:37:37.874Z,4.70
2022-10-13T15:40:11.338Z,4.70
2022-10-13T15:42:41.623Z,5.10
2022-10-13T15:45:11.155Z,5.00
2022-10-13T15:47:39.196Z,4.80
2022-10-13T15:50:12.941Z,5.40
2022-10-13T15:52:44.276Z,6.10
2022-10-13T15:55:15.454Z,5.90
2022-10-13T15:57:42.698Z,5.00
2022-10-13T16:00:14.331Z,5.40
2022-10-13T16:02:44.030Z,5.70
2022-10-13T16:05:13.569Z,6.10
2022-10-13T16:07:41.891Z,5.70
2022-10-13T16:10:11.223Z,5.70
2022-10-13T16:12:39.023Z,6.40
2022-10-13T16:15:07.600Z,6.40
2022-10-13T16:17:36.799Z,6.90
2022-10-13T16:20:05.901Z,7.60
2022-10-13T16:22:33.163Z,7.00
2022-10-13T16:25:00.638Z,7.20
2022-10-13T16:27:27.895Z,7.40
2022-10-13T16:29:55.275Z,7.90
2022-10-13T16:32:22.843Z,8.30
2022-10-13T16:34:50.370Z,7.70
2022-10-13T16:37:19.896Z,7.80
2022-10-13T16:39:51.483Z,8.10
2022-10-13T16:42:19.454Z,8.40
2022-10-13T16:44:46.707Z,9.20
2022-10-13T16:47:18.242Z,8.10
2022-10-13T16:49:47.144Z,8.70
2022-10-13T16:52:16.034Z,8.90
2022-10-13T16:54:44.281Z,8.60
2022-10-13T16:57:11.402Z,9.60
2022-10-13T16:59:38.597Z,8.90
2022-10-13T17:02:06.219Z,9.30
2022-10-13T17:04:37.869Z,9.70
2022-10-13T17:07:05.158Z,9.20
2022-10-13T17:09:32.403Z,9.10
2022-10-13T17:12:01.308Z,9.80
2022-10-13T17:14:28.571Z,8.70
2022-10-13T17:16:58.136Z,9.70
2022-10-13T17:19:26.304Z,9.10
2022-10-13T17:21:54.158Z,12.20
2022-10-13T17:24:22.533Z,12.40
2022-10-13T17:26:50.500Z,12.30
2022-10-13T17:29:18.738Z,12.30
2022-10-13T17:31:50.184Z,14.40
2022-10-13T17:37:17.314Z,14.70
2022-10-13T17:39:54.258Z,15.80
2022-10-13T17:42:22.879Z,15.10
2022-10-13T17:44:50.845Z,14.00
2022-10-13T17:47:19.041Z,14.90
2022-10-13T17:49:50.686Z,14.90
2022-10-13T17:52:21.792Z,14.10
2022-10-13T17:54:50.419Z,13.50
2022-10-13T17:57:19.071Z,15.40
2022-10-13T17:59:47.457Z,17.20
2022-10-13T18:02:17.452Z,19.10
2022-10-13T18:04:57.779Z,18.70
2022-10-13T18:07:33.679Z,20.90
2022-10-13T18:10:07.638Z,23.40
2022-10-13T18:12:36.127Z,25.80
2022-10-13T18:15:07.644Z,26.10
2022-10-13T18:17:36.277Z,26.30
2022-10-13T18:20:05.655Z,27.50
2022-10-13T18:22:35.017Z,26.10
2022-10-13T18:25:07.871Z,23.70
2022-10-13T18:27:35.974Z,22.80
2022-10-13T18:30:04.667Z,22.70
2022-10-13T18:32:34.557Z,21.60
2022-10-13T18:35:02.615Z,22.60
2022-10-13T18:37:30.980Z,20.30
2022-10-13T18:40:00.392Z,20.80
2022-10-13T18:42:36.676Z,21.70
2022-10-13T18:45:10.761Z,20.00
2022-10-13T18:47:46.030Z,20.00
2022-10-13T18:50:18.557Z,18.00
2022-10-13T18:52:48.019Z,18.80
2022-10-13T18:55:16.199Z,16.00
2022-10-13T18:57:44.268Z,15.30
2022-10-13T19:00:13.077Z,16.50
2022-10-13T19:02:41.616Z,16.40
2022-10-13T19:05:10.117Z,15.20
2022-10-13T19:07:39.169Z,16.50
2022-10-13T19:10:07.643Z,17.10
2022-10-13T19:12:35.340Z,16.40
2022-10-13T19:15:05.939Z,16.90
2022-10-13T19:17:34.319Z,17.20
2022-10-13T19:20:02.341Z,17.50
2022-10-13T19:22:30.581Z,16.70
2022-10-13T19:24:58.609Z,15.50
2022-10-13T19:27:27.245Z,16.00
2022-10-13T19:29:55.086Z,15.60
2022-10-13T19:32:22.614Z,16.20
2022-10-13T19:34:51.456Z,15.90
2022-10-13T19:37:19.868Z,16.80
2022-10-13T19:39:48.239Z,16.30
2022-10-13T19:42:17.226Z,16.50
2022-10-13T19:44:45.079Z,16.80
2022-10-13T19:47:16.474Z,14.30
2022-10-13T19:49:44.703Z,15.30
2022-10-13T19:52:12.271Z,15.60
2022-10-13T19:54:48.976Z,14.70
2022-10-13T19:57:17.348Z,12.70
2022-10-13T19:59:47.675Z,14.70
2022-10-13T20:02:15.816Z,14.30
2022-10-13T20:04:44.226Z,13.40
2022-10-13T20:07:11.380Z,14.30
2022-10-13T20:09:39.019Z,14.40
2022-10-13T20:12:10.255Z,14.40
2022-10-13T20:14:41.894Z,13.50
2022-10-13T20:17:09.291Z,15.40
2022-10-13T20:19:37.428Z,13.40
2022-10-13T20:22:04.885Z,14.50
2022-10-13T20:24:33.729Z,14.00
2022-10-13T20:27:01.866Z,14.60
2022-10-13T20:29:30.418Z,13.50
2022-10-13T20:31:57.792Z,14.50
2022-10-13T20:34:25.227Z,15.10
2022-10-13T20:36:52.589Z,14.30
2022-10-13T20:39:19.890Z,14.40
2022-10-13T20:41:47.220Z,13.80
2022-10-13T20:44:14.572Z,14.60
2022-10-13T20:46:41.821Z,14.30
2022-10-13T20:49:11.572Z,14.10
2022-10-13T20:51:39.917Z,13.60
2022-10-13T20:54:08.086Z,12.50
2022-10-13T20:56:36.106Z,12.60
2022-10-13T20:59:08.516Z,14.70
2022-10-13T21:01:36.829Z,15.30
2022-10-13T21:04:04.979Z,15.60
2022-10-13T21:06:32.105Z,15.40
2022-10-13T21:09:00.789Z,15.70
2022-10-13T21:11:28.040Z,15.00
2022-10-13T21:13:55.623Z,15.60
2022-10-13T21:16:27.537Z,15.80
2022-10-13T21:18:56.195Z,15.60
2022-10-13T21:21:26.581Z,14.30
2022-10-13T21:23:55.898Z,14.90
2022-10-13T21:26:24.159Z,14.90
2022-10-13T21:28:51.631Z,14.70
2022-10-13T21:31:22.722Z,15.60
2022-10-13T21:33:50.530Z,15.00
2022-10-13T21:36:30.463Z,13.60
2022-10-13T21:39:01.306Z,14.60
2022-10-13T21:41:29.364Z,12.80
2022-10-13T21:43:58.882Z,14.60
2022-10-13T21:46:31.670Z,13.40
2022-10-13T21:49:01.104Z,14.50
2022-10-13T21:51:32.706Z,15.00
2022-10-13T21:54:07.339Z,13.90
2022-10-13T21:56:35.339Z,14.50
2022-10-13T21:59:04.496Z,14.90
2022-10-13T22:01:31.963Z,16.20
2022-10-13T22:04:01.092Z,16.60
2022-10-13T22:06:30.524Z,16.10
2022-10-13T22:08:59.774Z,16.10
2022-10-13T22:11:30.702Z,16.20
2022-10-13T22:13:58.193Z,16.80
2022-10-13T22:16:28.624Z,16.20
2022-10-13T22:18:57.350Z,16.70
2022-10-13T22:21:28.358Z,16.30
2022-10-13T22:24:00.994Z,15.90
2022-10-13T22:26:29.896Z,17.40
2022-10-13T22:29:01.709Z,16.10
2022-10-13T22:31:29.384Z,16.50
2022-10-13T22:33:56.865Z,16.80
2022-10-13T22:36:25.438Z,17.50
2022-10-13T22:38:54.671Z,17.00
2022-10-13T22:41:22.498Z,16.90
2022-10-13T22:43:54.007Z,17.20
2022-10-13T22:46:26.843Z,16.70
2022-10-13T22:48:55.338Z,17.30
2022-10-13T22:51:24.325Z,17.20
2022-10-13T22:53:51.957Z,15.60
2022-10-13T22:56:27.405Z,16.10
2022-10-13T22:59:00.522Z,17.00
2022-10-13T23:01:28.453Z,15.10
2022-10-13T23:03:57.484Z,15.30
2022-10-13T23:06:30.763Z,16.40
2022-10-13T23:09:03.043Z,16.60
2022-10-13T23:11:30.395Z,17.20
2022-10-13T23:13:58.138Z,17.40
2022-10-13T23:16:27.090Z,18.00
2022-10-13T23:18:54.651Z,16.70
2022-10-13T23:21:29.407Z,17.20
2022-10-13T23:23:58.250Z,16.70
2022-10-13T23:26:26.626Z,17.60
2022-10-13T23:28:55.649Z,18.20
2022-10-13T23:31:23.353Z,18.30
2022-10-13T23:33:50.864Z,17.90
2022-10-13T23:36:24.625Z,15.70
2022-10-13T23:39:02.097Z,17.40
2022-10-13T23:41:29.555Z,17.40
2022-10-13T23:43:57.106Z,17.00
2022-10-13T23:46:24.666Z,16.80
2022-10-13T23:48:52.997Z,17.40
2022-10-13T23:51:23.463Z,15.90
2022-10-13T23:53:51.000Z,17.00
2022-10-13T23:56:19.108Z,16.10
2022-10-13T23:58:46.452Z,16.50
